Time;durP1;ratioP1;P1;durP2;ratioP2;P2;SDS_P1;SDS_P2;PMS_P1;PMS_P2;Temp;Humidity;BMP_temperature;BMP_pressure;BME280_temperature;BME280_humidity;BME280_pressure;Samples;Min_cycle;Max_cycle;Signal;HPM_P1;HPM_P2
2022/12/29 00:01:40;;;;;;;3.80;2.30;;;9.10;99.90;;;;;;5026041;28;20459;-66
2022/12/29 00:04:07;;;;;;;2.97;2.57;;;9.00;99.90;;;;;;5024933;28;20923;-65
2022/12/29 00:06:35;;;;;;;2.40;2.00;;;9.10;99.90;;;;;;5028217;28;20491;-66
2022/12/29 00:09:02;;;;;;;3.20;2.17;;;9.10;99.90;;;;;;5027260;28;20541;-65
2022/12/29 00:11:29;;;;;;;2.83;2.40;;;9.10;99.90;;;;;;5026333;28;20506;-65
2022/12/29 00:16:44;;;;;;;3.77;2.67;;;9.20;99.90;;;;;;5026644;28;20721;-67
2022/12/29 00:35:47;;;;;;;2.47;1.83;;;9.30;99.90;;;;;;5024876;28;20821;-68
2022/12/29 00:46:28;;;;;;;2.40;1.70;;;9.30;99.90;;;;;;5025871;28;20474;-66
2022/12/29 00:51:41;;;;;;;2.70;1.90;;;9.40;99.90;;;;;;5026317;28;20439;-66
2022/12/29 00:54:09;;;;;;;2.23;2.03;;;9.40;99.90;;;;;;5028987;28;20463;-65
2022/12/29 00:56:36;;;;;;;3.20;1.97;;;9.40;99.90;;;;;;5036716;28;20485;-66
2022/12/29 00:59:04;;;;;;;3.30;1.70;;;9.40;99.90;;;;;;5036188;28;20459;-65
2022/12/29 01:01:31;;;;;;;2.40;1.77;;;9.40;99.90;;;;;;5036683;28;20473;-66
2022/12/29 01:04:00;;;;;;;2.50;1.83;;;9.40;99.90;;;;;;5039829;28;20476;-65
2022/12/29 01:06:28;;;;;;;2.00;1.70;;;9.40;99.90;;;;;;5044064;28;20484;-65
2022/12/29 01:11:37;;;;;;;2.07;1.50;;;9.40;99.90;;;;;;5025402;28;20482;-66
2022/12/29 01:14:04;;;;;;;2.20;1.70;;;9.50;99.90;;;;;;5025572;28;20452;-68
2022/12/29 01:16:31;;;;;;;2.17;1.40;;;9.50;99.90;;;;;;5023574;28;20456;-67
2022/12/29 01:18:59;;;;;;;2.53;2.33;;;9.50;99.90;;;;;;5026670;28;20450;-69
2022/12/29 01:21:27;;;;;;;1.90;1.47;;;9.50;99.90;;;;;;5023658;28;20451;-68
2022/12/29 01:23:54;;;;;;;2.30;1.77;;;9.50;99.90;;;;;;5023753;28;20911;-67
2022/12/29 01:26:21;;;;;;;2.43;1.70;;;9.50;99.90;;;;;;5024078;28;20447;-67
2022/12/29 01:28:49;;;;;;;2.10;1.53;;;9.50;99.90;;;;;;5037614;28;20493;-67
2022/12/29 01:31:17;;;;;;;5.50;1.93;;;9.50;99.90;;;;;;5039028;28;20455;-66
2022/12/29 01:33:44;;;;;;;3.00;1.53;;;9.60;99.90;;;;;;5039468;28;20922;-66
2022/12/29 01:36:16;;;;;;;2.60;1.80;;;9.60;99.90;;;;;;5039669;28;20738;-65
2022/12/29 01:38:44;;;;;;;2.30;1.80;;;9.60;99.90;;;;;;5039771;28;20459;-68
2022/12/29 01:41:13;;;;;;;1.90;1.43;;;9.60;99.90;;;;;;5039616;28;20743;-68
2022/12/29 01:43:42;;;;;;;2.00;1.60;;;9.60;99.90;;;;;;5039559;28;20463;-69
2022/12/29 01:46:26;;;;;;;2.43;1.30;;;9.60;99.90;;;;;;5039444;28;20465;-69
2022/12/29 01:49:00;;;;;;;1.90;1.60;;;9.60;99.90;;;;;;5039182;28;20544;-68
2022/12/29 01:51:34;;;;;;;3.00;2.00;;;9.70;99.90;;;;;;5039173;28;20801;-67
2022/12/29 01:54:12;;;;;;;1.93;1.33;;;9.70;99.90;;;;;;5038985;28;20778;-68
2022/12/29 01:56:43;;;;;;;2.10;1.70;;;9.70;99.90;;;;;;5039138;28;20466;-67
2022/12/29 01:59:16;;;;;;;2.80;2.03;;;9.70;99.90;;;;;;5038591;28;20467;-67
2022/12/29 02:01:48;;;;;;;2.20;1.70;;;9.70;99.90;;;;;;5038651;28;20467;-67
2022/12/29 02:04:15;;;;;;;1.80;1.30;;;9.70;99.90;;;;;;5038681;28;20561;-66
2022/12/29 02:06:51;;;;;;;1.83;1.30;;;9.80;99.90;;;;;;5038730;28;20494;-65
2022/12/29 02:09:18;;;;;;;2.20;1.53;;;9.80;99.90;;;;;;5038421;28;20494;-67
2022/12/29 02:11:45;;;;;;;1.90;1.43;;;9.80;99.90;;;;;;5037897;28;20557;-67
2022/12/29 02:14:14;;;;;;;1.97;1.43;;;9.80;99.90;;;;;;5038779;28;20469;-67
2022/12/29 02:17:03;;;;;;;2.00;1.60;;;9.90;99.90;;;;;;5039055;28;20464;-66
2022/12/29 02:20:07;;;;;;;1.90;1.53;;;9.80;99.90;;;;;;5038290;28;20470;-66
2022/12/29 02:22:46;;;;;;;2.20;1.60;;;9.90;99.90;;;;;;5025876;28;20470;-67
2022/12/29 02:25:35;;;;;;;1.80;1.50;;;9.80;99.90;;;;;;5038275;28;21018;-66
2022/12/29 02:28:34;;;;;;;1.87;1.37;;;9.80;99.90;;;;;;5038749;28;20872;-66
2022/12/29 02:31:10;;;;;;;2.13;1.37;;;9.80;99.90;;;;;;5018369;28;20475;-67
2022/12/29 02:33:54;;;;;;;2.03;1.20;;;9.90;99.90;;;;;;5038665;28;20467;-66
2022/12/29 02:36:29;;;;;;;2.40;1.47;;;9.90;99.90;;;;;;5038235;28;20474;-65
2022/12/29 02:39:05;;;;;;;2.47;1.20;;;9.90;99.90;;;;;;5038124;28;20749;-66
2022/12/29 02:41:35;;;;;;;2.80;1.20;;;9.90;99.90;;;;;;5038156;28;20463;-66
2022/12/29 02:44:09;;;;;;;2.20;1.23;;;9.90;99.90;;;;;;5037820;28;20467;-66
2022/12/29 02:46:43;;;;;;;2.10;1.70;;;10.00;99.90;;;;;;5038152;28;20438;-65
2022/12/29 02:49:15;;;;;;;2.57;1.60;;;10.00;99.90;;;;;;5038328;28;20780;-66
2022/12/29 02:51:50;;;;;;;2.10;1.47;;;10.00;99.90;;;;;;5038005;28;20494;-65
2022/12/29 02:57:03;;;;;;;2.63;1.37;;;10.10;99.90;;;;;;5037842;28;20754;-65
2022/12/29 02:59:30;;;;;;;3.10;1.73;;;10.10;99.90;;;;;;5037803;28;20785;-65
2022/12/29 03:02:24;;;;;;;2.23;1.53;;;10.10;99.90;;;;;;5037997;28;20467;-64
2022/12/29 03:05:16;;;;;;;2.30;1.67;;;10.10;99.90;;;;;;5037739;28;20764;-65
2022/12/29 03:07:52;;;;;;;3.30;1.60;;;10.10;99.90;;;;;;5037280;28;20773;-64
2022/12/29 03:10:31;;;;;;;2.50;1.50;;;10.00;99.90;;;;;;5037269;28;20870;-65
2022/12/29 03:16:03;;;;;;;4.20;1.70;;;10.00;99.90;;;;;;5037373;28;20515;-64
2022/12/29 03:18:45;;;;;;;3.03;1.60;;;10.10;99.90;;;;;;5037966;28;20437;-65
2022/12/29 03:21:17;;;;;;;3.33;1.90;;;10.10;99.90;;;;;;5037526;28;20466;-66
2022/12/29 03:23:49;;;;;;;2.57;1.40;;;10.10;99.90;;;;;;5037242;28;20463;-65
2022/12/29 03:26:19;;;;;;;1.80;1.17;;;10.10;99.90;;;;;;5037523;28;20569;-64
2022/12/29 03:28:51;;;;;;;2.30;1.60;;;10.10;99.90;;;;;;5037745;28;20510;-64
2022/12/29 03:31:20;;;;;;;3.37;1.60;;;10.10;99.90;;;;;;5038645;28;20760;-64
2022/12/29 03:33:51;;;;;;;2.90;1.90;;;10.10;99.90;;;;;;5038585;28;20927;-64
2022/12/29 03:36:26;;;;;;;3.73;1.60;;;10.00;99.90;;;;;;5038355;28;20463;-64
2022/12/29 03:38:59;;;;;;;3.20;1.63;;;10.00;99.90;;;;;;5037941;28;20458;-64
2022/12/29 03:41:31;;;;;;;3.50;2.00;;;9.90;99.90;;;;;;5038090;28;20463;-64
2022/12/29 03:43:58;;;;;;;2.50;1.60;;;9.80;99.90;;;;;;5037761;28;20467;-64
2022/12/29 03:46:25;;;;;;;2.63;1.80;;;9.80;99.90;;;;;;5037251;28;20467;-64
2022/12/29 03:48:54;;;;;;;2.20;1.80;;;9.70;99.90;;;;;;5036865;28;20513;-63
2022/12/29 03:51:21;;;;;;;2.00;1.77;;;9.70;99.90;;;;;;5037029;28;20473;-65
2022/12/29 03:53:48;;;;;;;3.63;1.63;;;9.70;99.90;;;;;;5037032;28;20463;-63
2022/12/29 03:56:15;;;;;;;2.63;1.77;;;9.70;99.90;;;;;;5037303;28;20466;-65
2022/12/29 03:58:42;;;;;;;2.20;1.70;;;9.70;99.90;;;;;;5036950;28;20762;-66
2022/12/29 04:01:09;;;;;;;2.33;1.70;;;9.70;99.90;;;;;;5037141;28;20942;-66
2022/12/29 04:03:37;;;;;;;2.20;1.63;;;9.70;99.90;;;;;;5036680;28;20957;-65
2022/12/29 04:06:06;;;;;;;2.27;1.70;;;9.70;99.90;;;;;;5036440;28;20497;-66
2022/12/29 04:08:33;;;;;;;2.93;1.57;;;9.70;99.90;;;;;;5036702;28;20561;-65
2022/12/29 04:11:00;;;;;;;2.43;1.50;;;9.70;99.90;;;;;;5036690;28;20910;-65
2022/12/29 04:13:27;;;;;;;2.93;1.90;;;9.70;99.90;;;;;;5036448;28;20976;-66
2022/12/29 04:15:54;;;;;;;2.60;2.03;;;9.80;99.90;;;;;;5036234;28;20474;-64
2022/12/29 04:18:21;;;;;;;4.00;1.60;;;9.80;99.90;;;;;;5036575;28;20993;-65
2022/12/29 04:21:00;;;;;;;2.50;1.73;;;9.80;99.90;;;;;;5035994;28;20459;-66
2022/12/29 04:23:29;;;;;;;2.00;1.60;;;9.90;99.90;;;;;;5036559;28;20516;-65
2022/12/29 04:25:57;;;;;;;2.27;1.60;;;9.90;99.90;;;;;;5036195;28;20445;-64
2022/12/29 04:28:24;;;;;;;2.57;1.90;;;10.00;99.90;;;;;;5036295;28;20467;-64
2022/12/29 04:30:51;;;;;;;2.50;1.80;;;10.00;99.90;;;;;;5036310;28;20494;-66
2022/12/29 04:33:19;;;;;;;2.20;1.50;;;9.90;99.90;;;;;;5036114;28;20471;-66
2022/12/29 04:35:46;;;;;;;2.20;1.57;;;9.90;99.90;;;;;;5036078;28;20748;-64
2022/12/29 04:38:14;;;;;;;2.03;1.50;;;9.90;99.90;;;;;;5036433;28;20442;-65
2022/12/29 04:40:44;;;;;;;2.10;1.17;;;10.00;99.90;;;;;;5036180;28;20471;-64
2022/12/29 04:43:12;;;;;;;2.50;1.60;;;10.10;99.90;;;;;;5036018;28;20459;-65
2022/12/29 04:45:40;;;;;;;2.63;1.80;;;10.20;99.90;;;;;;5035919;28;20463;-65
2022/12/29 04:48:07;;;;;;;2.17;1.67;;;10.20;99.90;;;;;;5035865;28;20463;-65
2022/12/29 04:50:34;;;;;;;2.43;1.60;;;10.20;99.90;;;;;;5036192;28;20494;-65
2022/12/29 04:53:01;;;;;;;2.60;1.90;;;10.20;99.90;;;;;;5036505;28;20467;-64
2022/12/29 04:55:29;;;;;;;1.90;1.30;;;10.30;99.90;;;;;;5035630;28;20463;-63
2022/12/29 04:57:57;;;;;;;3.13;1.60;;;10.30;99.90;;;;;;5035521;28;20478;-66
2022/12/29 05:00:24;;;;;;;2.10;1.70;;;10.30;99.90;;;;;;5037153;28;20960;-64
2022/12/29 05:02:52;;;;;;;2.07;1.40;;;10.30;99.90;;;;;;5040117;28;20459;-64
2022/12/29 05:05:19;;;;;;;1.90;1.60;;;10.40;99.90;;;;;;5039628;28;20541;-64
2022/12/29 05:07:47;;;;;;;2.63;1.67;;;10.50;99.90;;;;;;5039779;28;20467;-62
2022/12/29 05:10:14;;;;;;;2.60;1.70;;;10.50;99.90;;;;;;5039775;28;20961;-64
2022/12/29 05:12:42;;;;;;;2.73;1.50;;;10.60;99.90;;;;;;5040508;28;20458;-63
2022/12/29 05:15:12;;;;;;;2.60;1.90;;;10.60;99.90;;;;;;5040115;28;20467;-63
2022/12/29 05:17:39;;;;;;;1.90;1.50;;;10.60;99.90;;;;;;5040100;28;20495;-65
2022/12/29 05:20:08;;;;;;;2.20;1.53;;;10.60;99.90;;;;;;5039997;28;20473;-63
2022/12/29 05:22:35;;;;;;;7.60;2.30;;;10.60;99.90;;;;;;5039824;28;20770;-63
2022/12/29 05:25:02;;;;;;;2.33;1.30;;;10.60;99.90;;;;;;5039170;28;20462;-65
2022/12/29 05:27:29;;;;;;;2.40;1.23;;;10.60;99.90;;;;;;5039090;28;20467;-64
2022/12/29 05:29:56;;;;;;;3.50;1.80;;;10.60;99.90;;;;;;5038799;28;20943;-64
2022/12/29 05:32:25;;;;;;;6.23;1.90;;;10.60;99.90;;;;;;5039449;28;20480;-63
2022/12/29 05:34:52;;;;;;;1.87;1.30;;;10.60;99.90;;;;;;5039475;28;20463;-66
2022/12/29 05:37:19;;;;;;;4.83;1.73;;;10.60;99.90;;;;;;5039284;28;20475;-64
2022/12/29 05:39:46;;;;;;;2.60;2.00;;;10.60;99.90;;;;;;5039457;28;20463;-64
2022/12/29 05:42:13;;;;;;;2.10;1.60;;;10.60;99.90;;;;;;5039060;28;20463;-63
2022/12/29 05:44:41;;;;;;;2.50;1.70;;;10.60;99.90;;;;;;5039017;28;20795;-63
2022/12/29 05:47:08;;;;;;;2.27;1.37;;;10.70;99.90;;;;;;5038909;28;20462;-64
2022/12/29 05:49:37;;;;;;;3.10;1.53;;;10.60;99.90;;;;;;5038506;28;20490;-65
2022/12/29 05:52:04;;;;;;;3.27;1.70;;;10.60;99.90;;;;;;5038970;28;20466;-64
2022/12/29 05:54:31;;;;;;;1.97;1.27;;;10.60;99.90;;;;;;5038803;28;20467;-66
2022/12/29 05:56:59;;;;;;;2.10;1.50;;;10.60;99.90;;;;;;5039011;28;20763;-64
2022/12/29 05:59:26;;;;;;;2.30;1.67;;;10.60;99.90;;;;;;5038698;28;20843;-64
2022/12/29 06:01:53;;;;;;;7.00;1.97;;;10.60;99.90;;;;;;5038808;28;20532;-65
2022/12/29 06:04:20;;;;;;;4.10;1.80;;;10.50;99.90;;;;;;5038817;28;20437;-64
2022/12/29 06:06:49;;;;;;;4.43;1.70;;;10.60;99.90;;;;;;5039004;28;20486;-64
2022/12/29 06:09:16;;;;;;;4.83;1.80;;;10.60;99.90;;;;;;5038863;28;20463;-64
2022/12/29 06:11:43;;;;;;;2.03;1.70;;;10.60;99.90;;;;;;5038094;28;20557;-64
2022/12/29 06:14:13;;;;;;;2.77;1.47;;;10.60;99.90;;;;;;5038610;28;20472;-64
2022/12/29 06:16:41;;;;;;;3.80;1.80;;;10.70;99.90;;;;;;5038767;28;20470;-63
2022/12/29 06:19:08;;;;;;;2.23;1.57;;;10.70;1.00;;;;;;5038593;28;20900;-63
2022/12/29 06:21:37;;;;;;;2.93;1.60;;;10.70;1.00;;;;;;5035760;28;20479;-64
2022/12/29 06:24:06;;;;;;;3.20;2.00;;;10.70;1.00;;;;;;5038371;28;20473;-63
2022/12/29 06:26:33;;;;;;;2.73;1.50;;;10.70;1.00;;;;;;5038632;28;20463;-64
2022/12/29 06:29:01;;;;;;;5.53;2.10;;;10.70;1.00;;;;;;5038304;28;20904;-63
2022/12/29 06:31:28;;;;;;;2.67;1.73;;;10.70;99.90;;;;;;5037704;28;20590;-64
2022/12/29 06:33:55;;;;;;;3.50;1.93;;;10.80;99.90;;;;;;5038642;28;20908;-63
2022/12/29 06:36:22;;;;;;;3.20;1.40;;;10.70;99.90;;;;;;5038467;28;20474;-63
2022/12/29 06:38:52;;;;;;;3.30;2.20;;;10.80;99.90;;;;;;5038932;28;20469;-63
2022/12/29 06:41:21;;;;;;;3.43;1.53;;;10.70;99.90;;;;;;5038112;28;20467;-63
2022/12/29 06:43:48;;;;;;;2.43;1.77;;;10.70;99.90;;;;;;5037553;28;20570;-64
2022/12/29 06:46:15;;;;;;;2.60;1.50;;;10.70;99.90;;;;;;5038759;28;20499;-64
2022/12/29 06:48:43;;;;;;;2.67;1.60;;;10.70;99.90;;;;;;5038571;28;20529;-63
2022/12/29 06:51:10;;;;;;;4.50;1.80;;;10.70;99.90;;;;;;5038908;28;20473;-63
2022/12/29 06:53:37;;;;;;;3.27;1.70;;;10.60;99.90;;;;;;5038416;28;20463;-63
2022/12/29 06:56:04;;;;;;;3.13;1.83;;;10.70;99.90;;;;;;5038325;28;20463;-63
2022/12/29 06:58:33;;;;;;;3.70;1.83;;;10.60;99.90;;;;;;5038036;28;20469;-63
2022/12/29 07:01:00;;;;;;;2.60;1.60;;;10.60;99.90;;;;;;5038344;28;20444;-64
2022/12/29 07:03:27;;;;;;;6.00;1.70;;;10.60;99.90;;;;;;5038153;28;20469;-64
2022/12/29 07:05:55;;;;;;;2.73;1.70;;;10.60;53.50;;;;;;5038214;28;20530;-64
2022/12/29 07:08:22;;;;;;;3.13;1.77;;;10.60;48.70;;;;;;5037886;28;20437;-63
2022/12/29 07:10:49;;;;;;;2.77;1.20;;;10.60;30.20;;;;;;5037692;28;20530;-64
2022/12/29 07:13:16;;;;;;;2.20;1.70;;;10.60;23.60;;;;;;5037243;28;20872;-63
2022/12/29 07:15:45;;;;;;;2.80;1.80;;;10.60;22.30;;;;;;5036105;28;20434;-63
2022/12/29 07:18:12;;;;;;;5.43;1.87;;;10.60;34.10;;;;;;5018581;28;20501;-63
2022/12/29 07:20:39;;;;;;;4.00;1.70;;;10.60;47.70;;;;;;5018395;28;20884;-63
2022/12/29 07:23:06;;;;;;;5.60;2.60;;;10.50;60.00;;;;;;5017920;28;20439;-63
2022/12/29 07:25:34;;;;;;;2.93;2.00;;;10.50;91.70;;;;;;5017313;28;20464;-64
2022/12/29 07:28:02;;;;;;;3.60;2.00;;;10.40;94.60;;;;;;5018195;28;20495;-64
2022/12/29 07:30:29;;;;;;;5.97;1.87;;;10.40;99.90;;;;;;5018113;28;20945;-63
2022/12/29 07:32:58;;;;;;;6.80;1.97;;;10.40;99.90;;;;;;5017858;28;20475;-63
2022/12/29 07:35:25;;;;;;;2.73;1.60;;;10.40;99.90;;;;;;5017493;28;20470;-63
2022/12/29 07:37:52;;;;;;;4.43;1.63;;;10.30;99.90;;;;;;5017747;28;20468;-63
2022/12/29 07:40:19;;;;;;;2.73;1.60;;;10.30;99.90;;;;;;5017639;28;21167;-64
2022/12/29 07:42:46;;;;;;;4.70;2.03;;;10.30;99.90;;;;;;5025716;28;20893;-64
2022/12/29 07:45:13;;;;;;;3.60;1.60;;;10.30;99.90;;;;;;5018335;28;20470;-63
2022/12/29 07:47:41;;;;;;;5.70;2.00;;;10.30;99.90;;;;;;5028847;28;20461;-64
2022/12/29 07:50:09;;;;;;;5.43;1.60;;;10.30;99.90;;;;;;5037180;28;20515;-64
2022/12/29 07:52:36;;;;;;;3.40;1.67;;;10.30;99.90;;;;;;5037396;28;20438;-64
2022/12/29 07:55:04;;;;;;;5.87;2.33;;;10.30;99.90;;;;;;5037312;28;20463;-63
2022/12/29 07:57:31;;;;;;;5.47;2.17;;;10.30;99.90;;;;;;5037359;28;20839;-63
2022/12/29 07:59:58;;;;;;;4.03;2.00;;;10.30;99.90;;;;;;5037164;28;20521;-63
2022/12/29 08:02:26;;;;;;;3.57;1.87;;;10.30;99.90;;;;;;5036625;28;20463;-63
2022/12/29 08:04:53;;;;;;;4.20;2.03;;;10.30;99.90;;;;;;5027280;28;20490;-63
2022/12/29 08:07:22;;;;;;;4.30;1.60;;;10.30;99.90;;;;;;5037162;28;20465;-63
2022/12/29 08:09:49;;;;;;;3.63;2.87;;;10.30;96.50;;;;;;5036902;28;20463;-63
2022/12/29 08:12:16;;;;;;;3.00;1.90;;;10.30;39.30;;;;;;5037471;28;20459;-63
2022/12/29 08:14:43;;;;;;;5.77;2.10;;;10.40;1.00;;;;;;5037026;28;20463;-62
2022/12/29 08:17:10;;;;;;;3.83;1.93;;;10.30;1.00;;;;;;5037483;28;20465;-63
2022/12/29 08:19:38;;;;;;;4.67;2.00;;;10.30;1.00;;;;;;5037070;28;20805;-63
2022/12/29 08:22:05;;;;;;;5.37;1.83;;;10.30;1.00;;;;;;5037020;28;20464;-63
2022/12/29 08:24:34;;;;;;;5.07;1.93;;;10.30;5.40;;;;;;5037176;28;20440;-63
2022/12/29 08:27:01;;;;;;;3.17;1.93;;;10.30;17.10;;;;;;5037156;28;20430;-63
2022/12/29 08:29:29;;;;;;;6.90;3.87;;;10.30;13.30;;;;;;5035989;28;20892;-63
2022/12/29 08:31:56;;;;;;;4.83;2.30;;;10.30;1.00;;;;;;5036721;28;20878;-62
2022/12/29 08:34:23;;;;;;;4.57;2.10;;;10.30;1.00;;;;;;5036870;28;20469;-62
2022/12/29 08:36:50;;;;;;;3.80;2.03;;;10.30;1.00;;;;;;5036546;28;20469;-62
2022/12/29 08:39:17;;;;;;;4.03;1.97;;;10.30;1.00;;;;;;5035891;28;20469;-62
2022/12/29 08:41:46;;;;;;;3.27;2.03;;;10.30;1.00;;;;;;5036760;28;20463;-62
2022/12/29 08:44:13;;;;;;;3.20;2.03;;;10.30;6.10;;;;;;5036264;28;20466;-61
2022/12/29 08:46:40;;;;;;;6.30;1.83;;;10.30;1.00;;;;;;5036271;28;20553;-61
2022/12/29 08:49:07;;;;;;;5.20;1.80;;;10.30;1.00;;;;;;5034724;28;20459;-62
2022/12/29 08:51:35;;;;;;;4.30;2.13;;;10.30;1.00;;;;;;5035278;28;20534;-62
2022/12/29 08:54:02;;;;;;;7.13;2.13;;;10.40;1.00;;;;;;5035392;28;20863;-62
2022/12/29 08:56:29;;;;;;;3.57;1.90;;;10.40;1.00;;;;;;5036122;28;20736;-62
2022/12/29 08:58:58;;;;;;;6.87;1.87;;;10.40;1.00;;;;;;5035762;28;20951;-62
2022/12/29 09:01:25;;;;;;;5.13;2.00;;;10.40;1.00;;;;;;5035890;28;20462;-62
2022/12/29 09:03:53;;;;;;;5.37;3.23;;;10.40;1.00;;;;;;5036485;28;20470;-62
2022/12/29 09:06:21;;;;;;;8.30;2.87;;;10.40;99.90;;;;;;5036126;28;20531;-62
2022/12/29 09:08:48;;;;;;;5.90;2.17;;;10.30;99.90;;;;;;5031576;28;20759;-62
2022/12/29 09:11:18;;;;;;;3.73;2.33;;;10.20;1.00;;;;;;5016968;28;20496;-63
2022/12/29 09:13:45;;;;;;;4.67;2.00;;;10.10;99.90;;;;;;5017442;28;20850;-62
2022/12/29 09:16:13;;;;;;;6.90;2.43;;;9.90;1.00;;;;;;5027834;28;20750;-62
2022/12/29 09:18:41;;;;;;;5.07;2.20;;;9.70;99.90;;;;;;5024115;28;20464;-63
2022/12/29 09:21:08;;;;;;;4.37;2.23;;;9.70;99.90;;;;;;5025139;28;20468;-62
2022/12/29 09:23:36;;;;;;;4.63;2.90;;;9.70;1.00;;;;;;5034442;28;20752;-59
2022/12/29 09:26:03;;;;;;;9.47;3.17;;;9.70;1.00;;;;;;5036292;28;20869;-61
2022/12/29 09:28:31;;;;;;;4.70;2.37;;;9.70;99.90;;;;;;5035348;28;20787;-60
2022/12/29 09:30:59;;;;;;;6.90;3.90;;;9.80;99.90;;;;;;5036147;28;20497;-58
2022/12/29 09:33:28;;;;;;;7.93;2.97;;;9.80;72.90;;;;;;5036237;28;20893;-62
2022/12/29 09:35:57;;;;;;;5.07;2.30;;;9.90;1.00;;;;;;5036057;28;20561;-63
2022/12/29 09:38:25;;;;;;;6.83;2.67;;;10.00;1.00;;;;;;5036151;28;20463;-62
2022/12/29 09:40:55;;;;;;;6.53;2.00;;;10.00;1.00;;;;;;5036991;28;20467;-62
2022/12/29 09:43:43;;;;;;;6.77;2.40;;;10.10;1.00;;;;;;5024787;28;20468;-61
2022/12/29 09:46:19;;;;;;;4.10;2.20;;;10.10;1.00;;;;;;5019192;28;20779;-58
2022/12/29 09:48:54;;;;;;;5.10;2.37;;;10.20;1.00;;;;;;5027538;28;20558;-61
2022/12/29 09:51:25;;;;;;;4.43;2.13;;;10.10;1.00;;;;;;5029265;28;20494;-62
2022/12/29 09:53:56;;;;;;;5.93;2.10;;;10.20;1.00;;;;;;5028809;28;20893;-62
2022/12/29 09:56:26;;;;;;;4.00;2.27;;;10.20;1.00;;;;;;5039475;28;20469;-63
2022/12/29 09:58:59;;;;;;;7.53;2.40;;;10.10;1.00;;;;;;5039803;28;20459;-63
2022/12/29 10:01:32;;;;;;;4.70;2.50;;;10.10;1.00;;;;;;5039528;28;20955;-63
2022/12/29 10:04:04;;;;;;;7.20;2.77;;;10.10;1.00;;;;;;5027924;28;20471;-63
2022/12/29 10:06:40;;;;;;;4.53;2.83;;;10.10;1.00;;;;;;5028827;28;20510;-61
2022/12/29 10:09:16;;;;;;;7.90;2.70;;;10.20;1.00;;;;;;5026638;28;20483;-63
2022/12/29 10:12:02;;;;;;;6.73;2.50;;;10.20;1.00;;;;;;5029529;28;20558;-63
2022/12/29 10:14:53;;;;;;;5.33;1.90;;;10.20;1.00;;;;;;5027160;28;20495;-63
2022/12/29 10:17:30;;;;;;;10.40;3.27;;;10.30;1.00;;;;;;5026298;28;20467;-63
2022/12/29 10:20:23;;;;;;;6.23;2.20;;;10.30;1.00;;;;;;5024675;28;20550;-62
2022/12/29 10:23:05;;;;;;;6.57;4.43;;;10.30;1.00;;;;;;5022946;28;20471;-62
2022/12/29 10:25:38;;;;;;;11.10;8.50;;;10.30;1.00;;;;;;5018022;28;20452;-62
2022/12/29 10:28:11;;;;;;;11.77;5.30;;;10.40;1.00;;;;;;5027336;28;20458;-62
2022/12/29 10:30:40;;;;;;;7.50;4.90;;;10.40;1.00;;;;;;5028115;28;20491;-63
2022/12/29 10:33:12;;;;;;;9.10;3.87;;;10.40;1.00;;;;;;5027511;28;20459;-63
2022/12/29 10:35:42;;;;;;;6.53;3.13;;;10.30;1.00;;;;;;5027933;28;20551;-63
2022/12/29 10:38:19;;;;;;;6.80;3.43;;;10.30;1.00;;;;;;5027074;28;20526;-64
2022/12/29 10:40:52;;;;;;;4.93;4.00;;;10.30;1.00;;;;;;5028139;28;20454;-63
2022/12/29 10:43:25;;;;;;;7.00;3.00;;;10.30;99.90;;;;;;5034136;28;20473;-63
2022/12/29 10:45:54;;;;;;;8.97;3.03;;;10.40;99.90;;;;;;5038576;28;20485;-63
2022/12/29 10:48:25;;;;;;;8.60;2.63;;;10.40;99.90;;;;;;5038524;28;20488;-64
2022/12/29 10:50:58;;;;;;;4.60;2.03;;;10.40;99.90;;;;;;5039064;28;20541;-63
2022/12/29 10:53:31;;;;;;;5.67;2.10;;;10.40;99.90;;;;;;5038216;28;20502;-63
2022/12/29 10:56:01;;;;;;;7.93;2.00;;;10.50;99.90;;;;;;5038901;28;20581;-62
2022/12/29 10:58:32;;;;;;;5.57;2.50;;;10.50;99.90;;;;;;5031420;28;20474;-63
2022/12/29 11:00:59;;;;;;;6.57;2.17;;;10.60;99.90;;;;;;5026970;28;20460;-63
2022/12/29 11:03:50;;;;;;;8.33;2.40;;;10.60;99.90;;;;;;5029085;28;20475;-62
2022/12/29 11:06:25;;;;;;;7.90;2.00;;;10.70;99.90;;;;;;5032544;28;20537;-63
2022/12/29 11:08:58;;;;;;;5.87;2.30;;;10.70;99.90;;;;;;5037738;28;20475;-63
2022/12/29 11:11:27;;;;;;;8.17;2.30;;;10.70;99.90;;;;;;5035591;28;20502;-63
2022/12/29 11:13:59;;;;;;;5.40;2.03;;;10.70;99.90;;;;;;5037875;28;20481;-63
2022/12/29 11:16:34;;;;;;;5.43;2.40;;;10.60;99.90;;;;;;5038315;28;20486;-63
2022/12/29 11:19:02;;;;;;;4.97;2.50;;;10.60;99.90;;;;;;5038478;28;20493;-63
2022/12/29 11:21:34;;;;;;;8.17;2.50;;;10.60;99.90;;;;;;5037807;28;20482;-62
2022/12/29 11:24:02;;;;;;;6.80;2.30;;;10.50;99.90;;;;;;5038404;28;20467;-62
2022/12/29 11:26:30;;;;;;;7.67;2.63;;;10.50;99.90;;;;;;5037416;28;20467;-62
2022/12/29 11:29:20;;;;;;;10.73;2.87;;;10.50;99.90;;;;;;5030224;28;20467;-63
2022/12/29 11:31:49;;;;;;;7.70;2.57;;;10.50;99.90;;;;;;5020315;28;20502;-63
2022/12/29 11:34:22;;;;;;;7.03;2.43;;;10.50;99.90;;;;;;5038066;28;20760;-63
2022/12/29 11:36:53;;;;;;;8.60;2.93;;;10.50;99.90;;;;;;5037248;28;20459;-63
2022/12/29 11:39:33;;;;;;;4.17;2.10;;;10.50;99.90;;;;;;5037601;28;20467;-61
2022/12/29 11:42:02;;;;;;;6.50;2.53;;;10.60;99.90;;;;;;5037204;28;20459;-59
2022/12/29 11:44:36;;;;;;;5.50;2.43;;;10.70;99.90;;;;;;5037243;28;20467;-60
2022/12/29 11:47:03;;;;;;;5.60;2.77;;;10.70;99.90;;;;;;5037096;28;20523;-60
2022/12/29 11:49:31;;;;;;;7.50;2.20;;;10.70;99.90;;;;;;5020099;28;20470;-58
2022/12/29 11:52:00;;;;;;;6.43;3.00;;;10.70;99.90;;;;;;5017428;28;20961;-58
2022/12/29 11:54:31;;;;;;;7.00;2.50;;;10.80;99.90;;;;;;5017663;28;20472;-59
2022/12/29 11:56:59;;;;;;;8.17;2.90;;;10.80;99.90;;;;;;5018074;28;20837;-58
2022/12/29 11:59:42;;;;;;;6.87;2.77;;;10.80;99.90;;;;;;5030399;28;20467;-59
2022/12/29 12:02:35;;;;;;;5.27;2.43;;;10.80;99.90;;;;;;5027366;28;20888;-56
2022/12/29 12:05:10;;;;;;;6.17;2.40;;;10.70;99.90;;;;;;5027524;28;20484;-60
2022/12/29 12:07:45;;;;;;;5.70;2.33;;;10.70;99.90;;;;;;5029818;28;20516;-59
2022/12/29 12:10:23;;;;;;;5.63;2.43;;;10.70;99.90;;;;;;5033637;28;20451;-60
2022/12/29 12:12:57;;;;;;;7.40;2.03;;;10.70;99.90;;;;;;5031135;28;20505;-58
2022/12/29 12:15:28;;;;;;;6.53;3.07;;;10.60;99.90;;;;;;5019628;28;20459;-59
2022/12/29 12:18:03;;;;;;;6.43;2.53;;;10.60;99.90;;;;;;5034666;28;20545;-60
2022/12/29 12:20:42;;;;;;;5.20;2.57;;;10.60;99.90;;;;;;5026352;28;20512;-58
2022/12/29 12:23:26;;;;;;;3.90;2.67;;;10.60;99.90;;;;;;5035969;28;20490;-58
2022/12/29 12:26:00;;;;;;;6.30;2.37;;;10.60;99.90;;;;;;5035519;28;20459;-60
2022/12/29 12:28:38;;;;;;;6.80;2.57;;;10.60;99.90;;;;;;5030211;28;20464;-60
2022/12/29 12:31:14;;;;;;;5.50;2.67;;;10.60;99.90;;;;;;5037238;28;20509;-59
2022/12/29 12:33:46;;;;;;;6.97;2.60;;;10.50;99.90;;;;;;5036654;28;20463;-59
2022/12/29 12:36:47;;;;;;;8.90;3.30;;;10.50;99.90;;;;;;5036963;28;20463;-59
2022/12/29 12:39:26;;;;;;;6.20;3.27;;;10.50;99.90;;;;;;5036511;28;20761;-60
2022/12/29 12:42:05;;;;;;;7.73;2.80;;;10.50;99.90;;;;;;5036573;28;20770;-60
2022/12/29 12:44:42;;;;;;;9.33;3.00;;;10.50;99.90;;;;;;5036604;28;20459;-61
2022/12/29 12:47:24;;;;;;;8.43;4.73;;;10.40;99.90;;;;;;5036436;28;20461;-60
2022/12/29 12:50:18;;;;;;;5.80;2.50;;;10.40;99.90;;;;;;5036757;28;20839;-60
2022/12/29 12:53:15;;;;;;;8.17;2.57;;;10.40;99.90;;;;;;5036668;28;20915;-59
2022/12/29 12:56:07;;;;;;;7.73;3.17;;;10.40;99.90;;;;;;5036354;28;20466;-59
2022/12/29 12:58:42;;;;;;;5.57;2.30;;;10.40;99.90;;;;;;5034968;28;20438;-60
2022/12/29 13:01:22;;;;;;;4.80;2.30;;;10.30;99.90;;;;;;5036564;28;20458;-59
2022/12/29 13:04:07;;;;;;;9.60;2.90;;;10.30;99.90;;;;;;5036274;28;20490;-60
2022/12/29 13:06:46;;;;;;;9.53;4.10;;;10.30;99.90;;;;;;5035481;28;20491;-60
2022/12/29 13:09:36;;;;;;;9.33;2.90;;;10.40;99.90;;;;;;5036148;28;20466;-59
2022/12/29 13:12:19;;;;;;;4.37;3.10;;;10.40;99.90;;;;;;5036323;28;21009;-59
2022/12/29 13:14:57;;;;;;;5.20;2.03;;;10.30;99.90;;;;;;5036280;28;20469;-59
2022/12/29 13:17:36;;;;;;;5.27;2.70;;;10.40;99.90;;;;;;5036103;28;20469;-59
2022/12/29 13:20:20;;;;;;;6.37;2.13;;;10.40;99.90;;;;;;5034434;28;20463;-59
2022/12/29 13:22:54;;;;;;;6.33;2.10;;;10.40;99.90;;;;;;5039925;28;20748;-60
2022/12/29 13:25:30;;;;;;;8.80;2.50;;;10.40;99.90;;;;;;5039895;28;20471;-59
2022/12/29 13:28:07;;;;;;;6.17;2.63;;;10.40;99.90;;;;;;5022773;28;20526;-59
2022/12/29 13:30:41;;;;;;;4.90;2.10;;;10.40;99.90;;;;;;5024684;28;20486;-60
2022/12/29 13:33:18;;;;;;;6.93;2.60;;;10.40;99.90;;;;;;5040490;28;20490;-60
2022/12/29 13:35:56;;;;;;;9.63;2.40;;;10.40;99.90;;;;;;5039749;28;20463;-61
2022/12/29 13:38:27;;;;;;;4.60;1.80;;;10.40;99.90;;;;;;5040366;28;20437;-61
2022/12/29 13:40:57;;;;;;;4.73;2.27;;;10.30;99.90;;;;;;5039629;28;20903;-61
2022/12/29 13:43:28;;;;;;;7.07;2.63;;;10.20;99.90;;;;;;5039731;28;20458;-61
2022/12/29 13:46:01;;;;;;;5.33;2.70;;;10.20;99.90;;;;;;5039742;28;20471;-61
2022/12/29 13:48:38;;;;;;;6.03;3.33;;;10.20;99.90;;;;;;5039638;28;20462;-61
2022/12/29 13:51:06;;;;;;;6.07;2.40;;;10.20;99.90;;;;;;5039199;28;20466;-62